createdAt,value
2019-01-02T00:00:12.322Z,17.03
2019-01-02T00:00:53.150Z,16.98
2019-01-02T00:01:33.860Z,17.01
2019-01-02T00:02:14.901Z,17.07
2019-01-02T00:02:55.720Z,17.08
2019-01-02T00:03:36.572Z,17
2019-01-02T00:04:17.341Z,17.01
2019-01-02T00:04:58.077Z,17.11
2019-01-02T00:05:38.868Z,17.04
2019-01-02T00:06:19.721Z,16.98
2019-01-02T00:07:00.443Z,16.98
2019-01-02T00:07:41.143Z,17.08
2019-01-02T00:08:21.850Z,17.03
2019-01-02T00:09:02.691Z,17.01
2019-01-02T00:09:43.562Z,17
2019-01-02T00:10:24.332Z,16.98
2019-01-02T00:11:05.136Z,16.98
2019-01-02T00:11:45.830Z,17.01
2019-01-02T00:12:26.586Z,17
2019-01-02T00:13:07.305Z,17.03
2019-01-02T00:13:48.105Z,17.11
2019-01-02T00:14:28.821Z,17
2019-01-02T00:15:09.537Z,17.06
2019-01-02T00:15:50.457Z,17.11
2019-01-02T00:16:31.303Z,17.03
2019-01-02T00:17:12.173Z,17.03
2019-01-02T00:17:52.869Z,16.97
2019-01-02T00:18:33.591Z,17.03
2019-01-02T00:19:14.495Z,17.01
2019-01-02T00:19:55.223Z,17.07
2019-01-02T00:20:35.980Z,17.06
2019-01-02T00:21:16.695Z,17.06
2019-01-02T00:21:57.418Z,17.07
2019-01-02T00:22:38.265Z,17.04
2019-01-02T00:23:18.970Z,17.03
2019-01-02T00:23:59.741Z,17.14
2019-01-02T00:24:40.576Z,17.01
2019-01-02T00:25:21.390Z,17.08
2019-01-02T00:26:02.231Z,16.97
2019-01-02T00:26:42.937Z,16.98
2019-01-02T00:27:23.659Z,17
2019-01-02T00:28:04.472Z,17.11
2019-01-02T00:28:45.312Z,17.12
2019-01-02T00:29:26.118Z,17.07
2019-01-02T00:30:06.896Z,17.11
2019-01-02T00:30:47.612Z,17.08
2019-01-02T00:31:28.335Z,17.01
2019-01-02T00:32:09.117Z,17.08
2019-01-02T00:32:49.900Z,17.01
2019-01-02T00:33:30.809Z,17.03
2019-01-02T00:34:11.485Z,17.07
2019-01-02T00:34:52.274Z,16.98
2019-01-02T00:35:33.051Z,17.07
2019-01-02T00:36:13.798Z,17.06
2019-01-02T00:36:54.619Z,17.01
2019-01-02T00:37:35.346Z,17.12
2019-01-02T00:38:16.032Z,16.97
2019-01-02T00:38:56.759Z,16.98
2019-01-02T00:39:37.942Z,17.01
2019-01-02T00:40:18.826Z,17.01
2019-01-02T00:40:59.559Z,17.11
2019-01-02T00:41:40.320Z,17
2019-01-02T00:42:21.120Z,17.11
2019-01-02T00:43:01.903Z,17.03
2019-01-02T00:43:43.233Z,17
2019-01-02T00:44:23.973Z,17.11
2019-01-02T00:45:04.695Z,17.07
2019-01-02T00:45:45.493Z,17.11
2019-01-02T00:46:26.274Z,17.12
2019-01-02T00:47:07.051Z,17.06
2019-01-02T00:47:47.871Z,17.06
2019-01-02T00:48:28.547Z,17.08
2019-01-02T00:49:09.273Z,17.11
2019-01-02T00:49:50.053Z,17.08
2019-01-02T00:50:30.735Z,17.07
2019-01-02T00:51:11.433Z,17
2019-01-02T00:51:52.155Z,17.01
2019-01-02T00:52:32.910Z,17.08
2019-01-02T00:53:13.714Z,17.11
2019-01-02T00:53:54.431Z,17.01
2019-01-02T00:54:35.196Z,17.08
2019-01-02T00:55:16.039Z,17.08
2019-01-02T00:55:56.777Z,17.12
2019-01-02T00:56:37.588Z,17
2019-01-02T00:57:18.292Z,17.07
2019-01-02T00:57:59.134Z,17.06
2019-01-02T00:58:39.905Z,17.11
2019-01-02T00:59:20.597Z,17.01
2019-01-02T01:00:01.306Z,17
2019-01-02T01:00:42.024Z,17.06
2019-01-02T01:01:22.810Z,17.07
2019-01-02T01:02:03.644Z,17.08
2019-01-02T01:02:44.418Z,17.01
2019-01-02T01:03:25.157Z,17
2019-01-02T01:04:05.881Z,17.11
2019-01-02T01:04:46.610Z,17.11
2019-01-02T01:05:27.368Z,16.98
2019-01-02T01:06:08.192Z,16.98
2019-01-02T01:06:48.888Z,17.06
2019-01-02T01:07:29.594Z,17.08
2019-01-02T01:08:10.379Z,17.12
2019-01-02T01:08:51.131Z,17.07
2019-01-02T01:09:31.916Z,17.11
2019-01-02T01:10:12.638Z,17.11
2019-01-02T01:10:53.355Z,17.14
2019-01-02T01:11:34.048Z,17.03
2019-01-02T01:12:14.840Z,17.07
2019-01-02T01:12:55.606Z,17.07
2019-01-02T01:13:36.427Z,17.06
2019-01-02T01:14:17.123Z,17.08
2019-01-02T01:14:57.839Z,17.03
2019-01-02T01:15:38.650Z,17.06
2019-01-02T01:16:19.373Z,17.03
2019-01-02T01:17:00.093Z,17.01
2019-01-02T01:17:40.931Z,17.01
2019-01-02T01:18:21.667Z,17.03
2019-01-02T01:19:02.453Z,17.03
2019-01-02T01:19:43.240Z,17.11
2019-01-02T01:20:23.972Z,17.11
2019-01-02T01:21:04.722Z,17.04
2019-01-02T01:21:45.485Z,17.11
2019-01-02T01:22:26.188Z,17.08
2019-01-02T01:23:06.998Z,17.08
2019-01-02T01:23:47.719Z,17.11
2019-01-02T01:24:28.409Z,17.08
2019-01-02T01:25:09.203Z,16.96
2019-01-02T01:25:49.947Z,17.01
2019-01-02T01:26:30.762Z,16.97
2019-01-02T01:27:11.484Z,16.98
2019-01-02T01:27:52.208Z,16.97
2019-01-02T01:28:33.108Z,17.11
2019-01-02T01:29:13.848Z,17.06
2019-01-02T01:29:54.587Z,17.06
2019-01-02T01:30:35.298Z,16.96
2019-01-02T01:31:16.033Z,17.08
2019-01-02T01:31:56.850Z,16.98
2019-01-02T01:32:37.583Z,17.11
2019-01-02T01:33:18.325Z,17.01
2019-01-02T01:33:59.138Z,16.98
2019-01-02T01:34:39.934Z,16.98
2019-01-02T01:35:20.736Z,16.98
2019-01-02T01:36:01.449Z,16.98
2019-01-02T01:36:42.145Z,16.91
2019-01-02T01:37:22.837Z,17.06
2019-01-02T01:38:03.630Z,16.98
2019-01-02T01:38:44.424Z,16.96
2019-01-02T01:39:25.215Z,17.01
2019-01-02T01:40:06.001Z,17.03
2019-01-02T01:40:46.697Z,17.11
2019-01-02T01:41:27.482Z,17.11
2019-01-02T01:43:17.502Z,17.14
2019-01-02T01:43:58.318Z,17
2019-01-02T01:44:39.135Z,16.98
2019-01-02T01:45:19.830Z,17.08
2019-01-02T01:46:00.625Z,17.01
2019-01-02T01:46:41.390Z,17.01
2019-01-02T01:47:22.135Z,17.01
2019-01-02T01:48:02.859Z,16.98
2019-01-02T01:48:43.604Z,17.11
2019-01-02T01:49:24.352Z,16.97
2019-01-02T01:50:05.202Z,17.07
2019-01-02T01:50:45.913Z,16.98
2019-01-02T01:51:26.634Z,17.03
2019-01-02T01:52:07.460Z,17.01
2019-01-02T01:52:48.236Z,17.01
2019-01-02T01:53:29.014Z,17.07
2019-01-02T01:54:09.739Z,17.04
2019-01-02T01:54:50.483Z,16.98
2019-01-02T01:55:31.291Z,17.01
2019-01-02T01:56:12.014Z,16.98
2019-01-02T01:56:52.692Z,17.12
2019-01-02T01:57:33.419Z,17
2019-01-02T01:58:14.172Z,17
2019-01-02T01:58:54.981Z,17.01
2019-01-02T01:59:35.822Z,17.11
2019-01-02T02:00:16.556Z,16.98
2019-01-02T02:00:57.234Z,16.98
2019-01-02T02:01:37.945Z,16.98
2019-01-02T02:02:18.676Z,17.01
2019-01-02T02:02:59.456Z,17.01
2019-01-02T02:03:40.180Z,17.12
2019-01-02T02:04:20.914Z,17
2019-01-02T02:05:01.673Z,16.94
2019-01-02T02:05:42.484Z,17.01
2019-01-02T02:06:23.307Z,17.01
2019-01-02T02:07:04.032Z,16.98
2019-01-02T02:07:44.798Z,16.96
2019-01-02T02:08:25.512Z,16.98
2019-01-02T02:09:06.236Z,16.96
2019-01-02T02:09:47.062Z,17.07
2019-01-02T02:10:27.816Z,16.98
2019-01-02T02:11:08.551Z,17.01
2019-01-02T02:11:49.244Z,17.07
2019-01-02T02:12:30.065Z,16.98
2019-01-02T02:13:10.871Z,17
2019-01-02T02:13:51.617Z,17.07
2019-01-02T02:14:32.329Z,17.07
2019-01-02T02:15:13.031Z,17.01
2019-01-02T02:15:53.797Z,17.07
2019-01-02T02:16:34.558Z,16.98
2019-01-02T02:17:15.384Z,16.97
2019-01-02T02:17:56.086Z,17.06
2019-01-02T02:18:36.773Z,17.01
2019-01-02T02:19:17.490Z,16.97
2019-01-02T02:19:58.216Z,16.98
2019-01-02T02:20:38.994Z,16.97
2019-01-02T02:21:19.742Z,17.08
2019-01-02T02:22:00.544Z,17.03
2019-01-02T02:22:41.332Z,17.06
2019-01-02T02:23:22.099Z,16.98
2019-01-02T02:24:02.887Z,17.07
2019-01-02T02:24:43.592Z,16.97
2019-01-02T02:25:24.316Z,17.08
2019-01-02T02:26:05.150Z,17.04
2019-01-02T02:26:45.842Z,17.01
2019-01-02T02:27:26.570Z,17
2019-01-02T02:28:07.268Z,16.97
2019-01-02T02:28:48.077Z,17.12
2019-01-02T02:29:28.856Z,17.01
2019-01-02T02:30:09.569Z,17.12
2019-01-02T02:30:50.336Z,17.08
2019-01-02T02:31:31.146Z,17.06
2019-01-02T02:32:11.879Z,17.04
2019-01-02T02:32:52.652Z,17.04
2019-01-02T02:33:33.368Z,17.01
2019-01-02T02:34:14.129Z,17.06
2019-01-02T02:34:54.862Z,17.06
2019-01-02T02:35:35.657Z,17.03
2019-01-02T02:36:16.473Z,17.08
2019-01-02T02:36:57.270Z,17.03
2019-01-02T02:37:37.956Z,17.01
2019-01-02T02:38:18.712Z,17.07
2019-01-02T02:38:59.528Z,17.06
2019-01-02T02:39:40.252Z,17.08
2019-01-02T02:40:20.950Z,17
2019-01-02T02:41:01.694Z,17.01
2019-01-02T02:41:42.487Z,17.11
2019-01-02T02:42:23.327Z,17.12
2019-01-02T02:43:04.128Z,17.04
2019-01-02T02:43:44.879Z,17
2019-01-02T02:44:25.572Z,17.07
2019-01-02T02:45:06.293Z,17
2019-01-02T02:45:47.065Z,17.03
2019-01-02T02:46:27.877Z,17.06
2019-01-02T02:47:08.628Z,17.06
2019-01-02T02:47:49.370Z,17.01
2019-01-02T02:48:30.148Z,17.01
2019-01-02T02:49:10.964Z,17.08
2019-01-02T02:49:51.767Z,16.98
2019-01-02T02:50:32.446Z,17.06
2019-01-02T02:51:13.169Z,16.97
2019-01-02T02:51:53.892Z,17.11
2019-01-02T02:52:34.737Z,17.12
2019-01-02T02:53:15.528Z,17.01
2019-01-02T02:53:56.304Z,17.04
2019-01-02T02:54:37.069Z,17.08
2019-01-02T02:55:17.797Z,17.11
2019-01-02T02:55:58.593Z,17.11
2019-01-02T02:56:39.372Z,17.01
2019-01-02T02:57:20.112Z,17.03
2019-01-02T02:58:00.816Z,17.03
2019-01-02T02:58:41.592Z,17.06
2019-01-02T02:59:22.369Z,17.11
2019-01-02T03:00:03.118Z,17.11
2019-01-02T03:00:43.874Z,16.98
2019-01-02T03:01:24.696Z,17.08
2019-01-02T03:02:05.506Z,17.08
2019-01-02T03:02:46.272Z,17.08
2019-01-02T03:03:27.023Z,17.03
2019-01-02T03:04:07.760Z,17.06
2019-01-02T03:04:48.536Z,17.06
2019-01-02T03:05:29.236Z,17.08
2019-01-02T03:06:10.010Z,17.03
2019-01-02T03:06:53.000Z,17.08
2019-01-02T03:07:31.517Z,17.08
2019-01-02T03:08:12.361Z,17.01
2019-01-02T03:08:53.169Z,17.04
2019-01-02T03:09:33.963Z,17.11
2019-01-02T03:10:14.698Z,17.03
2019-01-02T03:10:55.397Z,17.07
2019-01-02T03:11:36.106Z,17.07
2019-01-02T03:12:16.949Z,17.07
2019-01-02T03:12:57.702Z,17.07
2019-01-02T03:13:38.368Z,17.01
2019-01-02T03:14:19.172Z,17.06
2019-01-02T03:14:59.997Z,17.06
2019-01-02T03:15:40.793Z,17
2019-01-02T03:16:21.518Z,16.98
2019-01-02T03:17:02.230Z,17.08
2019-01-02T03:17:42.954Z,17.08
2019-01-02T03:18:23.800Z,17.11
2019-01-02T03:19:04.589Z,17.01
2019-01-02T03:19:45.393Z,17
2019-01-02T03:20:26.162Z,16.98
2019-01-02T03:21:06.893Z,17
2019-01-02T03:21:47.684Z,17.01
2019-01-02T03:22:28.519Z,17.12
2019-01-02T03:23:09.237Z,17
2019-01-02T03:23:49.970Z,16.97
2019-01-02T03:24:30.689Z,17.11
2019-01-02T03:25:11.526Z,17.03
2019-01-02T03:25:52.305Z,17
2019-01-02T03:26:33.080Z,17.07
2019-01-02T03:27:13.810Z,17
2019-01-02T03:27:54.500Z,16.98
2019-01-02T03:28:35.244Z,17.11
2019-01-02T03:29:16.074Z,17.01
2019-01-02T03:29:56.832Z,17.06
2019-01-02T03:30:37.527Z,17.06
2019-01-02T03:31:18.291Z,17.01
2019-01-02T03:31:59.046Z,17.03
2019-01-02T03:32:39.845Z,17.11
2019-01-02T03:33:20.629Z,17
2019-01-02T03:34:01.336Z,17.07
2019-01-02T03:34:42.181Z,17.11
2019-01-02T03:35:22.918Z,17
2019-01-02T03:36:03.631Z,17
2019-01-02T03:36:44.371Z,17
2019-01-02T03:37:25.096Z,17.03
2019-01-02T03:38:05.952Z,17.01
2019-01-02T03:38:46.686Z,17.01
2019-01-02T03:39:27.425Z,17.03
2019-01-02T03:40:08.257Z,16.97
2019-01-02T03:40:49.003Z,17.08
2019-01-02T03:41:29.821Z,16.98
2019-01-02T03:42:10.563Z,17
2019-01-02T03:42:51.306Z,16.97
2019-01-02T03:43:32.061Z,16.98
2019-01-02T03:44:12.784Z,16.93
2019-01-02T03:44:53.629Z,17
2019-01-02T03:45:34.440Z,17.01
2019-01-02T03:46:15.212Z,17.03
2019-01-02T03:46:55.977Z,17.01
2019-01-02T03:47:36.698Z,17
2019-01-02T03:48:17.494Z,16.98
2019-01-02T03:48:58.249Z,17.06
2019-01-02T03:49:38.988Z,16.98
2019-01-02T03:50:19.742Z,16.97
2019-01-02T03:51:00.534Z,17.04
2019-01-02T03:51:41.351Z,17.01
2019-01-02T03:52:22.088Z,17.01
2019-01-02T03:53:02.795Z,17.03
2019-01-02T03:53:43.576Z,16.97
2019-01-02T03:54:24.377Z,16.98
2019-01-02T03:55:05.125Z,16.97
2019-01-02T03:55:45.954Z,16.96
2019-01-02T03:56:26.717Z,17.07
2019-01-02T03:57:07.550Z,16.98
2019-01-02T03:57:48.309Z,17.01
2019-01-02T03:58:29.006Z,17.04
2019-01-02T03:59:09.727Z,17.04
2019-01-02T03:59:50.508Z,17.01
2019-01-02T04:00:31.335Z,17.01
2019-01-02T04:01:12.189Z,16.98
2019-01-02T04:01:52.952Z,16.96
2019-01-02T04:02:33.652Z,17.01
2019-01-02T04:03:14.358Z,17.01
2019-01-02T04:03:55.071Z,16.98
2019-01-02T04:04:35.848Z,17.03
2019-01-02T04:05:16.563Z,17.08
2019-01-02T04:05:57.289Z,16.98
2019-01-02T04:06:38.081Z,17.08
2019-01-02T04:07:18.855Z,17.04
2019-01-02T04:07:59.685Z,16.97
2019-01-02T04:08:40.409Z,16.97
2019-01-02T04:09:21.115Z,17.01
2019-01-02T04:10:01.947Z,16.94
2019-01-02T04:10:42.639Z,16.96
2019-01-02T04:11:23.365Z,17.04
2019-01-02T04:12:04.065Z,17.11
2019-01-02T04:12:44.804Z,17.03
2019-01-02T04:13:25.596Z,17
2019-01-02T04:14:06.371Z,17.04
2019-01-02T04:14:47.094Z,17.12
2019-01-02T04:15:27.917Z,17.12
2019-01-02T04:16:08.714Z,16.98
2019-01-02T04:16:49.482Z,17
2019-01-02T04:17:30.167Z,16.98
2019-01-02T04:18:10.894Z,17.12
2019-01-02T04:18:51.662Z,17.01
2019-01-02T04:19:32.465Z,17.01
2019-01-02T04:20:13.247Z,17.07
2019-01-02T04:20:54.088Z,17.01
2019-01-02T04:21:34.877Z,17.06
2019-01-02T04:22:15.627Z,17.01
2019-01-02T04:22:56.439Z,17.06
2019-01-02T04:23:37.189Z,17.01
2019-01-02T04:24:17.922Z,17.03
2019-01-02T04:24:58.675Z,17
2019-01-02T04:25:39.416Z,17.01
2019-01-02T04:26:20.272Z,16.98
2019-01-02T04:27:01.060Z,16.98
2019-01-02T04:27:41.838Z,17
2019-01-02T04:28:22.525Z,17.06
2019-01-02T04:29:03.251Z,17
2019-01-02T04:29:43.979Z,17.03
2019-01-02T04:30:24.783Z,17.11
2019-01-02T04:31:05.556Z,17
2019-01-02T04:31:46.261Z,17.06
2019-01-02T04:32:27.046Z,16.98
2019-01-02T04:33:07.821Z,17.03
2019-01-02T04:33:48.627Z,17.01
2019-01-02T04:34:29.372Z,16.98
2019-01-02T04:35:10.069Z,16.98
2019-01-02T04:35:50.822Z,17.08
2019-01-02T04:36:31.601Z,17
2019-01-02T04:37:12.427Z,17
2019-01-02T04:37:53.223Z,17.12
2019-01-02T04:38:34.006Z,17.06
2019-01-02T04:39:14.739Z,17.08
2019-01-02T04:39:55.472Z,17.08
2019-01-02T04:40:36.315Z,17.01
2019-01-02T04:41:17.051Z,16.98
2019-01-02T04:41:57.763Z,17.03
2019-01-02T04:42:38.482Z,17.01
2019-01-02T04:43:19.243Z,17.11
2019-01-02T04:44:00.040Z,17.11
2019-01-02T04:44:40.775Z,17.04
2019-01-02T04:45:21.516Z,17.01
2019-01-02T04:46:02.341Z,17.03
2019-01-02T04:46:43.135Z,16.98
2019-01-02T04:47:23.857Z,17.01
2019-01-02T04:48:04.593Z,16.98
2019-01-02T04:48:45.409Z,17.03
2019-01-02T04:49:26.224Z,16.98
2019-01-02T04:50:06.918Z,17.01
2019-01-02T04:50:47.616Z,17.04
2019-01-02T04:51:28.341Z,16.98
2019-01-02T04:52:09.190Z,17.03
2019-01-02T04:52:49.915Z,16.96
2019-01-02T04:53:30.693Z,17.06
2019-01-02T04:54:11.430Z,17
2019-01-02T04:54:52.125Z,17.06
2019-01-02T04:55:32.813Z,16.96
2019-01-02T04:56:13.566Z,16.97
2019-01-02T04:56:54.381Z,16.98
2019-01-02T04:57:35.132Z,17
2019-01-02T04:58:15.851Z,16.98
2019-01-02T04:58:56.654Z,17.01
2019-01-02T04:59:37.459Z,16.98
2019-01-02T05:00:18.241Z,17.01
2019-01-02T05:00:58.990Z,16.96
2019-01-02T05:01:39.726Z,17.07
2019-01-02T05:02:20.438Z,17.04
2019-01-02T05:03:01.210Z,17.04
2019-01-02T05:03:41.999Z,17.06
2019-01-02T05:04:22.752Z,17.01
2019-01-02T05:05:03.466Z,17.01
2019-01-02T05:05:44.165Z,16.97
2019-01-02T05:06:24.992Z,17.01
2019-01-02T05:07:05.713Z,16.97
2019-01-02T05:07:46.520Z,16.98
2019-01-02T05:08:27.240Z,16.96
2019-01-02T05:09:08.047Z,17
2019-01-02T05:09:48.824Z,17.04
2019-01-02T05:10:29.629Z,16.97
2019-01-02T05:11:10.424Z,16.96
2019-01-02T05:11:51.129Z,17
2019-01-02T05:12:31.838Z,17.01
2019-01-02T05:13:12.568Z,16.93
2019-01-02T05:13:53.352Z,17.06
2019-01-02T05:14:34.119Z,17.04
2019-01-02T05:15:14.836Z,17
2019-01-02T05:15:55.600Z,17.03
2019-01-02T05:16:36.385Z,16.97
2019-01-02T05:17:17.215Z,17.04
2019-01-02T05:17:57.951Z,16.98
2019-01-02T05:18:38.684Z,16.97
2019-01-02T05:19:20.444Z,17.01
2019-01-02T05:20:01.175Z,16.98
2019-01-02T05:20:41.956Z,17.07
2019-01-02T05:21:22.694Z,17.06
2019-01-02T05:22:03.412Z,17.04
2019-01-02T05:22:44.232Z,16.97
2019-01-02T05:23:24.978Z,16.97
2019-01-02T05:24:05.709Z,16.98
2019-01-02T05:24:46.452Z,17.04
2019-01-02T05:25:27.213Z,16.98
2019-01-02T05:26:07.982Z,16.98
2019-01-02T05:26:48.738Z,16.98
2019-01-02T05:27:29.458Z,17.12
2019-01-02T05:28:10.168Z,17.04
2019-01-02T05:28:51.040Z,17.01
2019-01-02T05:29:31.805Z,17
2019-01-02T05:30:12.609Z,17.03
2019-01-02T05:30:53.410Z,17.01
2019-01-02T05:31:34.107Z,17.07
2019-01-02T05:32:14.903Z,16.96
2019-01-02T05:32:55.684Z,16.98
2019-01-02T05:33:36.430Z,17
2019-01-02T05:34:17.163Z,17.03
2019-01-02T05:34:57.880Z,17.06
2019-01-02T05:35:38.639Z,16.97
2019-01-02T05:36:19.462Z,17.07
2019-01-02T05:37:00.208Z,17.04
2019-01-02T05:37:40.935Z,16.98
2019-01-02T05:38:21.657Z,17.07
2019-01-02T05:39:02.394Z,16.98
2019-01-02T05:39:43.189Z,17.06
2019-01-02T05:40:23.970Z,16.94
2019-01-02T05:41:04.719Z,17.06
2019-01-02T05:41:45.464Z,16.97
2019-01-02T05:42:26.222Z,17.01
2019-01-02T05:43:07.028Z,17.06
2019-01-02T05:43:47.862Z,17.01
2019-01-02T05:44:28.573Z,17
2019-01-02T05:45:09.308Z,17.06
2019-01-02T05:45:50.034Z,17.06
2019-01-02T05:46:30.836Z,16.91
2019-01-02T05:47:11.608Z,17.04
2019-01-02T05:47:52.360Z,17
2019-01-02T05:48:33.114Z,16.93
2019-01-02T05:49:13.819Z,16.98
2019-01-02T05:49:54.628Z,16.97
2019-01-02T05:50:35.433Z,16.97
2019-01-02T05:51:16.189Z,17.03
2019-01-02T05:51:56.874Z,16.93
2019-01-02T05:52:37.646Z,16.96
2019-01-02T05:53:18.431Z,17
2019-01-02T05:53:59.179Z,16.97
2019-01-02T05:54:39.887Z,16.96
2019-01-02T05:55:20.718Z,17.03
2019-01-02T05:56:01.531Z,17.06
2019-01-02T05:56:42.272Z,16.93
2019-01-02T05:57:22.986Z,17.03
2019-01-02T05:58:03.775Z,16.91
2019-01-02T05:58:44.583Z,17.01
2019-01-02T05:59:25.299Z,17
2019-01-02T06:00:06.013Z,17.04
2019-01-02T06:00:46.698Z,16.93
2019-01-02T06:01:27.487Z,16.89
2019-01-02T06:02:08.236Z,16.96
2019-01-02T06:02:49.017Z,17.03
2019-01-02T06:03:29.789Z,17.03
2019-01-02T06:04:10.518Z,16.96
2019-01-02T06:04:51.312Z,17.04
2019-01-02T06:05:32.086Z,17.03
2019-01-02T06:06:12.902Z,17.01
2019-01-02T06:06:53.679Z,16.96
2019-01-02T06:07:34.391Z,16.96
2019-01-02T06:08:15.152Z,17.07
2019-01-02T06:08:55.932Z,16.93
2019-01-02T06:09:36.717Z,17.04
2019-01-02T06:10:17.418Z,16.93
2019-01-02T06:10:58.124Z,17.04
2019-01-02T06:11:38.955Z,16.98
2019-01-02T06:12:19.737Z,16.93
2019-01-02T06:13:00.433Z,16.89
2019-01-02T06:13:41.132Z,16.98
2019-01-02T06:14:21.878Z,16.97
2019-01-02T06:15:02.693Z,16.91
2019-01-02T06:15:43.430Z,16.97
2019-01-02T06:16:24.126Z,17.01
2019-01-02T06:17:04.974Z,16.94
2019-01-02T06:17:45.752Z,17.03
2019-01-02T06:18:26.589Z,17.03
2019-01-02T06:19:07.300Z,17.04
2019-01-02T06:19:48.028Z,16.96
2019-01-02T06:20:28.735Z,17.04
2019-01-02T06:21:09.495Z,16.93
2019-01-02T06:21:50.262Z,16.93
2019-01-02T06:22:31.098Z,17.03
2019-01-02T06:23:11.873Z,16.93
2019-01-02T06:23:52.575Z,16.94
2019-01-02T06:24:33.381Z,16.96
2019-01-02T06:25:14.164Z,16.96
2019-01-02T06:25:54.849Z,16.93
2019-01-02T06:26:35.524Z,17
2019-01-02T06:27:16.240Z,17
2019-01-02T06:27:57.037Z,17
2019-01-02T06:28:37.749Z,16.98
2019-01-02T06:29:18.464Z,16.94
2019-01-02T06:29:59.254Z,16.91
2019-01-02T06:30:40.037Z,16.98
2019-01-02T06:31:20.849Z,16.94
2019-01-02T06:32:01.629Z,17.03
2019-01-02T06:32:42.352Z,16.94
2019-01-02T06:33:23.125Z,16.96
2019-01-02T06:34:03.879Z,16.93
2019-01-02T06:34:44.574Z,17
2019-01-02T06:35:25.288Z,16.98
2019-01-02T06:36:05.992Z,16.96
2019-01-02T06:36:46.770Z,16.96
2019-01-02T06:37:27.565Z,16.91
2019-01-02T06:38:08.323Z,16.89
2019-01-02T06:38:49.071Z,16.96
2019-01-02T06:39:29.845Z,16.93
2019-01-02T06:40:10.611Z,16.98
2019-01-02T06:40:51.445Z,16.96
2019-01-02T06:41:32.245Z,17
2019-01-02T06:42:12.958Z,16.97
2019-01-02T06:42:53.779Z,16.94
2019-01-02T06:43:34.490Z,16.89
2019-01-02T06:44:15.286Z,16.93
2019-01-02T06:44:56.020Z,16.96
2019-01-02T06:45:36.733Z,16.93
2019-01-02T06:46:17.499Z,16.98
2019-01-02T06:46:58.283Z,16.96
2019-01-02T06:47:39.083Z,16.97
2019-01-02T06:48:19.875Z,16.98
2019-01-02T06:49:00.675Z,16.94
2019-01-02T06:49:41.418Z,16.96
2019-01-02T06:50:22.143Z,16.93
2019-01-02T06:51:02.958Z,17.04
2019-01-02T06:51:43.686Z,16.93
2019-01-02T06:52:24.373Z,16.97
2019-01-02T06:53:05.073Z,16.96
2019-01-02T06:53:45.843Z,17.03
2019-01-02T06:54:26.642Z,17.04
2019-01-02T06:55:07.446Z,16.97
2019-01-02T06:55:48.206Z,17.04
2019-01-02T06:56:28.898Z,16.97
2019-01-02T06:57:09.636Z,16.93
2019-01-02T06:57:50.358Z,16.93
2019-01-02T06:58:31.183Z,16.97
2019-01-02T06:59:11.895Z,16.93
2019-01-02T06:59:52.621Z,16.94
2019-01-02T07:00:33.440Z,16.94
2019-01-02T07:01:14.210Z,16.91
2019-01-02T07:01:55.004Z,16.94
2019-01-02T07:02:35.701Z,16.93
2019-01-02T07:03:16.432Z,16.93
2019-01-02T07:03:57.272Z,16.93
2019-01-02T07:04:38.006Z,16.98
2019-01-02T07:05:18.699Z,16.96
2019-01-02T07:05:59.442Z,16.94
2019-01-02T07:06:40.179Z,17
2019-01-02T07:07:21.025Z,16.93
2019-01-02T07:08:01.741Z,16.94
2019-01-02T07:08:42.458Z,16.89
2019-01-02T07:09:23.291Z,16.96
2019-01-02T07:10:04.096Z,16.91
2019-01-02T07:10:44.840Z,16.94
2019-01-02T07:11:25.519Z,16.97
2019-01-02T07:12:06.229Z,16.89
2019-01-02T07:12:46.966Z,16.93
2019-01-02T07:13:27.734Z,17.04
2019-01-02T07:14:08.470Z,17.01
2019-01-02T07:14:49.277Z,17.06
2019-01-02T07:15:29.996Z,16.98
2019-01-02T07:16:10.712Z,17.04
2019-01-02T07:16:51.530Z,16.98
2019-01-02T07:17:32.336Z,17.11
2019-01-02T07:18:13.014Z,17.03
2019-01-02T07:18:53.765Z,17.11
2019-01-02T07:19:34.490Z,17.03
2019-01-02T07:20:15.321Z,17.06
2019-01-02T07:20:56.127Z,17.11
2019-01-02T07:21:36.952Z,17.15
2019-01-02T07:22:17.676Z,17.06
2019-01-02T07:22:58.569Z,17.14
2019-01-02T07:23:39.277Z,17.07
2019-01-02T07:24:20.389Z,17.12
2019-01-02T07:25:01.181Z,17.04
2019-01-02T07:25:41.920Z,17.04
2019-01-02T07:26:22.676Z,17.06
2019-01-02T07:27:03.475Z,17.07
2019-01-02T07:27:44.281Z,17.11
2019-01-02T07:28:25.032Z,17.14
2019-01-02T07:29:05.769Z,17.01
2019-01-02T07:29:46.491Z,17.11
2019-01-02T07:30:27.252Z,17.08
2019-01-02T07:31:08.098Z,17.08
2019-01-02T07:31:48.953Z,17.08
2019-01-02T07:32:29.737Z,17.06
2019-01-02T07:33:10.419Z,17
2019-01-02T07:33:51.233Z,16.97
2019-01-02T07:34:31.975Z,17.11
2019-01-02T07:35:12.713Z,17
2019-01-02T07:35:53.433Z,17.08
2019-01-02T07:36:34.203Z,17.15
2019-01-02T07:37:14.968Z,17.16
2019-01-02T07:37:55.777Z,17.22
2019-01-02T07:38:36.491Z,17.36
2019-01-02T07:39:17.200Z,17.36
2019-01-02T07:39:58.011Z,17.36
2019-01-02T07:40:38.842Z,17.44
2019-01-02T07:41:19.691Z,17.34
2019-01-02T07:42:00.419Z,17.38
2019-01-02T07:42:41.181Z,17.46
2019-01-02T07:43:21.985Z,17.46
2019-01-02T07:44:02.712Z,17.4
2019-01-02T07:44:43.421Z,17.38
2019-01-02T07:45:24.116Z,17.44
2019-01-02T07:46:04.865Z,17.46
2019-01-02T07:46:45.686Z,17.38
2019-01-02T07:47:26.505Z,17.41
2019-01-02T07:48:07.214Z,17.4
2019-01-02T07:48:47.900Z,17.51
2019-01-02T07:49:28.600Z,17.43
2019-01-02T07:50:09.303Z,17.36
2019-01-02T07:50:50.091Z,17.46
2019-01-02T07:51:30.796Z,17.41
2019-01-02T07:52:11.538Z,17.38
2019-01-02T07:52:52.393Z,17.38
2019-01-02T07:53:33.129Z,17.37
2019-01-02T07:54:13.931Z,17.44
2019-01-02T07:54:54.653Z,17.44
2019-01-02T07:55:35.345Z,17.48
2019-01-02T07:56:16.056Z,17.34
2019-01-02T07:56:56.816Z,17.46
2019-01-02T07:57:37.648Z,17.33
2019-01-02T07:58:18.464Z,17.37
2019-01-02T07:58:59.170Z,17.4
2019-01-02T07:59:39.890Z,17.46
2019-01-02T08:00:20.708Z,17.36
2019-01-02T08:01:01.419Z,17.44
2019-01-02T08:01:42.105Z,17.46
2019-01-02T08:02:22.816Z,17.46
2019-01-02T08:03:03.545Z,17.31
2019-01-02T08:03:44.367Z,17.36
2019-01-02T08:04:25.122Z,17.4
2019-01-02T08:05:05.972Z,17.4
2019-01-02T08:05:46.694Z,17.4
2019-01-02T08:06:27.468Z,17.38
2019-01-02T08:07:08.141Z,17.43
2019-01-02T08:07:48.923Z,17.34
2019-01-02T08:08:29.719Z,17.44
2019-01-02T08:09:10.440Z,17.41
2019-01-02T08:09:51.180Z,17.41
2019-01-02T08:10:32.057Z,17.43
2019-01-02T08:11:12.876Z,17.54
2019-01-02T08:11:53.662Z,17.44
2019-01-02T08:12:34.385Z,17.4
2019-01-02T08:13:15.105Z,17.37
2019-01-02T08:13:55.888Z,17.41
2019-01-02T08:14:36.666Z,17.49
2019-01-02T08:15:17.387Z,17.36
2019-01-02T08:15:58.115Z,17.43
2019-01-02T08:16:38.896Z,17.48
2019-01-02T08:17:19.656Z,17.52
2019-01-02T08:18:00.385Z,17.37
2019-01-02T08:18:41.151Z,17.37
2019-01-02T08:19:21.960Z,17.43
2019-01-02T08:20:04.028Z,17.48
2019-01-02T08:20:43.499Z,17.43
2019-01-02T08:21:24.211Z,17.46
2019-01-02T08:22:04.905Z,17.48
2019-01-02T08:22:45.670Z,17.4
2019-01-02T08:23:26.479Z,17.41
2019-01-02T08:24:07.235Z,17.43
2019-01-02T08:24:48.027Z,17.3
2019-01-02T08:25:28.773Z,17.41
2019-01-02T08:26:09.527Z,17.37
2019-01-02T08:26:50.327Z,17.3
2019-01-02T08:27:31.039Z,17.21
2019-01-02T08:28:11.737Z,17.34
2019-01-02T08:28:52.501Z,17.36
2019-01-02T08:29:33.188Z,17.26
2019-01-02T08:30:13.975Z,17.22
2019-01-02T08:30:54.736Z,17.26
2019-01-02T08:31:35.522Z,17.26
2019-01-02T08:32:16.326Z,17.22
2019-01-02T08:32:57.112Z,17.18
2019-01-02T08:33:37.909Z,17.22
2019-01-02T08:34:18.612Z,17.18
2019-01-02T08:34:59.438Z,17.21
2019-01-02T08:35:40.246Z,17.26
2019-01-02T08:36:20.980Z,17.3
2019-01-02T08:37:01.655Z,17.33
2019-01-02T08:37:42.381Z,17.4
2019-01-02T08:38:23.199Z,17.43
2019-01-02T08:39:04.003Z,17.44
2019-01-02T08:39:44.802Z,17.46
2019-01-02T08:40:25.525Z,17.44
2019-01-02T08:41:06.261Z,17.41
2019-01-02T08:41:47.084Z,17.4
2019-01-02T08:42:27.844Z,17.41
2019-01-02T08:43:08.646Z,17.4
2019-01-02T08:43:49.383Z,17.44
2019-01-02T08:44:30.087Z,17.43
2019-01-02T08:45:10.851Z,17.43
2019-01-02T08:45:51.686Z,17.46
2019-01-02T08:46:32.486Z,17.41
2019-01-02T08:47:13.177Z,17.43
2019-01-02T08:47:53.938Z,17.43
2019-01-02T08:48:34.735Z,17.46
2019-01-02T08:49:15.461Z,17.41
2019-01-02T08:49:56.169Z,17.41